sensor_id;sensor_type;location;lat;lon;timestamp;temperature;humidity
37786;DHT22;23625;48.784;9.336;2023-07-29T00:01:08;16.80;99.90
37786;DHT22;23625;48.784;9.336;2023-07-29T00:03:34;16.80;99.90
37786;DHT22;23625;48.784;9.336;2023-07-29T00:05:59;16.80;99.90
37786;DHT22;23625;48.784;9.336;2023-07-29T00:08:25;16.90;99.90
37786;DHT22;23625;48.784;9.336;2023-07-29T00:10:50;16.90;99.90
37786;DHT22;23625;48.784;9.336;2023-07-29T00:13:16;16.90;99.90
37786;DHT22;23625;48.784;9.336;2023-07-29T00:15:42;16.80;99.90
37786;DHT22;23625;48.784;9.336;2023-07-29T00:18:07;16.80;99.90
37786;DHT22;23625;48.784;9.336;2023-07-29T00:20:33;16.80;99.90
37786;DHT22;23625;48.784;9.336;2023-07-29T00:22:58;16.80;99.90
37786;DHT22;23625;48.784;9.336;2023-07-29T00:25:25;16.80;99.90
37786;DHT22;23625;48.784;9.336;2023-07-29T00:27:50;16.80;99.90
37786;DHT22;23625;48.784;9.336;2023-07-29T00:30:16;16.80;99.90
37786;DHT22;23625;48.784;9.336;2023-07-29T00:32:41;16.80;99.90
37786;DHT22;23625;48.784;9.336;2023-07-29T00:35:07;16.90;99.90
37786;DHT22;23625;48.784;9.336;2023-07-29T00:37:33;16.90;99.90
37786;DHT22;23625;48.784;9.336;2023-07-29T00:39:59;16.90;99.90
37786;DHT22;23625;48.784;9.336;2023-07-29T00:42:24;16.90;99.90
37786;DHT22;23625;48.784;9.336;2023-07-29T00:44:50;16.90;99.90
37786;DHT22;23625;48.784;9.336;2023-07-29T00:47:16;16.90;99.90
37786;DHT22;23625;48.784;9.336;2023-07-29T00:49:45;16.90;99.90
37786;DHT22;23625;48.784;9.336;2023-07-29T00:52:11;16.90;99.90
37786;DHT22;23625;48.784;9.336;2023-07-29T00:54:39;16.90;99.90
37786;DHT22;23625;48.784;9.336;2023-07-29T00:57:05;16.90;99.90
37786;DHT22;23625;48.784;9.336;2023-07-29T00:59:51;16.90;99.90
37786;DHT22;23625;48.784;9.336;2023-07-29T01:02:16;16.90;99.90
37786;DHT22;23625;48.784;9.336;2023-07-29T01:04:42;16.90;99.90
37786;DHT22;23625;48.784;9.336;2023-07-29T01:07:14;16.90;99.90
37786;DHT22;23625;48.784;9.336;2023-07-29T01:09:50;16.90;99.90
37786;DHT22;23625;48.784;9.336;2023-07-29T01:15:23;16.90;99.90
37786;DHT22;23625;48.784;9.336;2023-07-29T01:17:54;16.90;99.90
37786;DHT22;23625;48.784;9.336;2023-07-29T01:20:21;16.90;99.90
37786;DHT22;23625;48.784;9.336;2023-07-29T01:22:49;16.90;99.90
37786;DHT22;23625;48.784;9.336;2023-07-29T01:25:15;16.90;99.90
37786;DHT22;23625;48.784;9.336;2023-07-29T01:27:42;16.90;99.90
37786;DHT22;23625;48.784;9.336;2023-07-29T01:30:08;16.90;99.90
37786;DHT22;23625;48.784;9.336;2023-07-29T01:32:56;16.90;99.90
37786;DHT22;23625;48.784;9.336;2023-07-29T01:35:38;16.90;99.90
37786;DHT22;23625;48.784;9.336;2023-07-29T01:38:29;16.90;99.90
37786;DHT22;23625;48.784;9.336;2023-07-29T01:40:58;16.80;99.90
37786;DHT22;23625;48.784;9.336;2023-07-29T01:43:27;16.80;99.90
37786;DHT22;23625;48.784;9.336;2023-07-29T01:45:53;16.90;99.90
37786;DHT22;23625;48.784;9.336;2023-07-29T01:48:19;16.80;99.90
37786;DHT22;23625;48.784;9.336;2023-07-29T01:50:44;16.80;99.90
37786;DHT22;23625;48.784;9.336;2023-07-29T01:53:10;16.80;99.90
37786;DHT22;23625;48.784;9.336;2023-07-29T01:55:35;16.80;99.90
37786;DHT22;23625;48.784;9.336;2023-07-29T01:58:01;16.80;99.90
37786;DHT22;23625;48.784;9.336;2023-07-29T02:00:27;16.80;99.90
37786;DHT22;23625;48.784;9.336;2023-07-29T02:02:52;16.80;99.90
37786;DHT22;23625;48.784;9.336;2023-07-29T02:05:18;16.80;99.90
37786;DHT22;23625;48.784;9.336;2023-07-29T02:07:43;16.90;99.90
37786;DHT22;23625;48.784;9.336;2023-07-29T02:10:09;16.90;99.90
37786;DHT22;23625;48.784;9.336;2023-07-29T02:12:34;16.90;99.90
37786;DHT22;23625;48.784;9.336;2023-07-29T02:15:00;17.00;99.90
37786;DHT22;23625;48.784;9.336;2023-07-29T02:17:26;16.90;99.90
37786;DHT22;23625;48.784;9.336;2023-07-29T02:19:52;16.90;99.90
37786;DHT22;23625;48.784;9.336;2023-07-29T02:22:18;16.90;99.90
37786;DHT22;23625;48.784;9.336;2023-07-29T02:24:44;16.90;99.90
37786;DHT22;23625;48.784;9.336;2023-07-29T02:27:10;16.90;99.90
37786;DHT22;23625;48.784;9.336;2023-07-29T02:29:36;16.90;99.90
37786;DHT22;23625;48.784;9.336;2023-07-29T02:32:02;16.90;99.90
37786;DHT22;23625;48.784;9.336;2023-07-29T02:34:28;16.90;99.90
37786;DHT22;23625;48.784;9.336;2023-07-29T02:36:54;16.90;99.90
37786;DHT22;23625;48.784;9.336;2023-07-29T02:39:20;16.90;99.90
37786;DHT22;23625;48.784;9.336;2023-07-29T02:41:45;16.90;99.90
37786;DHT22;23625;48.784;9.336;2023-07-29T02:44:11;16.90;99.90
37786;DHT22;23625;48.784;9.336;2023-07-29T02:46:36;16.90;99.90
37786;DHT22;23625;48.784;9.336;2023-07-29T02:49:03;16.90;99.90
37786;DHT22;23625;48.784;9.336;2023-07-29T02:51:30;16.90;99.90
37786;DHT22;23625;48.784;9.336;2023-07-29T02:53:55;16.90;99.90
37786;DHT22;23625;48.784;9.336;2023-07-29T02:56:21;16.90;99.90
37786;DHT22;23625;48.784;9.336;2023-07-29T02:58:47;16.90;99.90
37786;DHT22;23625;48.784;9.336;2023-07-29T03:01:12;16.90;99.90
37786;DHT22;23625;48.784;9.336;2023-07-29T03:03:39;16.90;99.90
37786;DHT22;23625;48.784;9.336;2023-07-29T03:06:07;16.80;99.90
37786;DHT22;23625;48.784;9.336;2023-07-29T03:08:33;16.80;99.90
37786;DHT22;23625;48.784;9.336;2023-07-29T03:11:05;16.80;99.90
37786;DHT22;23625;48.784;9.336;2023-07-29T03:13:31;16.80;99.90
37786;DHT22;23625;48.784;9.336;2023-07-29T03:16:08;16.80;99.90
37786;DHT22;23625;48.784;9.336;2023-07-29T03:18:34;16.80;99.90
37786;DHT22;23625;48.784;9.336;2023-07-29T03:20:59;16.80;99.90
37786;DHT22;23625;48.784;9.336;2023-07-29T03:23:25;16.80;99.90
37786;DHT22;23625;48.784;9.336;2023-07-29T03:25:51;16.70;99.90
37786;DHT22;23625;48.784;9.336;2023-07-29T03:28:25;16.70;99.90
37786;DHT22;23625;48.784;9.336;2023-07-29T03:30:51;16.70;99.90
37786;DHT22;23625;48.784;9.336;2023-07-29T03:33:17;16.70;99.90
37786;DHT22;23625;48.784;9.336;2023-07-29T03:35:42;16.70;99.90
37786;DHT22;23625;48.784;9.336;2023-07-29T03:38:10;16.70;99.90
37786;DHT22;23625;48.784;9.336;2023-07-29T03:40:37;16.70;99.90
37786;DHT22;23625;48.784;9.336;2023-07-29T03:43:02;16.70;99.90
37786;DHT22;23625;48.784;9.336;2023-07-29T03:45:28;16.70;99.90
37786;DHT22;23625;48.784;9.336;2023-07-29T03:47:54;16.70;99.90
37786;DHT22;23625;48.784;9.336;2023-07-29T03:50:19;16.70;99.90
37786;DHT22;23625;48.784;9.336;2023-07-29T03:52:45;16.70;99.90
37786;DHT22;23625;48.784;9.336;2023-07-29T03:55:10;16.70;99.90
37786;DHT22;23625;48.784;9.336;2023-07-29T03:57:36;16.70;99.90
37786;DHT22;23625;48.784;9.336;2023-07-29T04:00:02;16.80;99.90
37786;DHT22;23625;48.784;9.336;2023-07-29T04:02:28;16.80;99.90
37786;DHT22;23625;48.784;9.336;2023-07-29T04:04:54;16.80;99.90
37786;DHT22;23625;48.784;9.336;2023-07-29T04:07:19;16.80;99.90
37786;DHT22;23625;48.784;9.336;2023-07-29T04:09:45;16.80;99.90
37786;DHT22;23625;48.784;9.336;2023-07-29T04:12:11;16.80;99.90
37786;DHT22;23625;48.784;9.336;2023-07-29T04:14:36;16.90;99.90
37786;DHT22;23625;48.784;9.336;2023-07-29T04:17:02;16.90;99.90
37786;DHT22;23625;48.784;9.336;2023-07-29T04:19:27;16.90;99.90
37786;DHT22;23625;48.784;9.336;2023-07-29T04:21:53;16.90;99.90
37786;DHT22;23625;48.784;9.336;2023-07-29T04:24:18;16.90;99.90
37786;DHT22;23625;48.784;9.336;2023-07-29T04:26:45;17.10;99.90
37786;DHT22;23625;48.784;9.336;2023-07-29T04:29:11;17.00;99.90
37786;DHT22;23625;48.784;9.336;2023-07-29T04:31:37;17.10;99.90
37786;DHT22;23625;48.784;9.336;2023-07-29T04:34:04;17.10;99.90
37786;DHT22;23625;48.784;9.336;2023-07-29T04:36:30;17.10;99.90
37786;DHT22;23625;48.784;9.336;2023-07-29T04:38:55;17.10;99.90
37786;DHT22;23625;48.784;9.336;2023-07-29T04:41:21;17.10;99.90
37786;DHT22;23625;48.784;9.336;2023-07-29T04:43:46;17.10;99.90
37786;DHT22;23625;48.784;9.336;2023-07-29T04:46:12;17.10;99.90
37786;DHT22;23625;48.784;9.336;2023-07-29T04:48:38;17.10;99.90
37786;DHT22;23625;48.784;9.336;2023-07-29T04:51:03;17.10;99.90
37786;DHT22;23625;48.784;9.336;2023-07-29T04:53:29;17.10;99.90
37786;DHT22;23625;48.784;9.336;2023-07-29T04:55:55;17.10;99.90
37786;DHT22;23625;48.784;9.336;2023-07-29T04:58:20;17.10;99.90
37786;DHT22;23625;48.784;9.336;2023-07-29T05:00:47;17.20;99.90
37786;DHT22;23625;48.784;9.336;2023-07-29T05:03:12;17.20;99.90
37786;DHT22;23625;48.784;9.336;2023-07-29T05:05:38;17.20;99.90
37786;DHT22;23625;48.784;9.336;2023-07-29T05:08:03;17.20;99.90
37786;DHT22;23625;48.784;9.336;2023-07-29T05:10:29;17.20;99.90
37786;DHT22;23625;48.784;9.336;2023-07-29T05:12:55;17.20;99.90
37786;DHT22;23625;48.784;9.336;2023-07-29T05:15:20;17.20;99.90
37786;DHT22;23625;48.784;9.336;2023-07-29T05:17:46;17.20;99.90
37786;DHT22;23625;48.784;9.336;2023-07-29T05:20:11;17.20;99.90
37786;DHT22;23625;48.784;9.336;2023-07-29T05:22:37;17.20;99.90
37786;DHT22;23625;48.784;9.336;2023-07-29T05:25:03;17.30;99.90
37786;DHT22;23625;48.784;9.336;2023-07-29T05:27:28;17.30;99.90
37786;DHT22;23625;48.784;9.336;2023-07-29T05:29:54;17.20;99.90
37786;DHT22;23625;48.784;9.336;2023-07-29T05:32:20;17.20;99.90
37786;DHT22;23625;48.784;9.336;2023-07-29T05:34:45;17.30;99.90
37786;DHT22;23625;48.784;9.336;2023-07-29T05:37:11;17.30;99.90
37786;DHT22;23625;48.784;9.336;2023-07-29T05:39:36;17.30;99.90
37786;DHT22;23625;48.784;9.336;2023-07-29T05:42:03;17.30;99.90
37786;DHT22;23625;48.784;9.336;2023-07-29T05:44:28;17.30;99.90
37786;DHT22;23625;48.784;9.336;2023-07-29T05:46:56;17.30;99.90
37786;DHT22;23625;48.784;9.336;2023-07-29T05:49:22;17.30;99.90
37786;DHT22;23625;48.784;9.336;2023-07-29T05:51:47;17.30;99.90
37786;DHT22;23625;48.784;9.336;2023-07-29T05:54:13;17.40;99.90
37786;DHT22;23625;48.784;9.336;2023-07-29T05:56:39;17.40;99.90
37786;DHT22;23625;48.784;9.336;2023-07-29T05:59:04;17.50;99.90
37786;DHT22;23625;48.784;9.336;2023-07-29T06:01:30;17.60;99.90
37786;DHT22;23625;48.784;9.336;2023-07-29T06:03:55;17.60;99.90
37786;DHT22;23625;48.784;9.336;2023-07-29T06:06:21;17.70;99.90
37786;DHT22;23625;48.784;9.336;2023-07-29T06:08:50;17.70;99.90
37786;DHT22;23625;48.784;9.336;2023-07-29T06:11:15;17.80;99.90
37786;DHT22;23625;48.784;9.336;2023-07-29T06:13:41;17.90;99.90
37786;DHT22;23625;48.784;9.336;2023-07-29T06:16:06;18.00;99.90
37786;DHT22;23625;48.784;9.336;2023-07-29T06:18:32;18.00;99.90
37786;DHT22;23625;48.784;9.336;2023-07-29T06:20:57;18.20;99.90
37786;DHT22;23625;48.784;9.336;2023-07-29T06:23:23;18.30;99.90
37786;DHT22;23625;48.784;9.336;2023-07-29T06:25:49;18.30;99.90
37786;DHT22;23625;48.784;9.336;2023-07-29T06:28:14;18.40;99.90
37786;DHT22;23625;48.784;9.336;2023-07-29T06:30:40;18.40;99.90
37786;DHT22;23625;48.784;9.336;2023-07-29T06:33:06;18.50;99.90
37786;DHT22;23625;48.784;9.336;2023-07-29T06:35:31;18.50;99.90
37786;DHT22;23625;48.784;9.336;2023-07-29T06:37:57;18.50;99.90
37786;DHT22;23625;48.784;9.336;2023-07-29T06:40:22;18.50;99.90
37786;DHT22;23625;48.784;9.336;2023-07-29T06:42:48;18.70;99.90
37786;DHT22;23625;48.784;9.336;2023-07-29T06:45:13;18.70;99.90
37786;DHT22;23625;48.784;9.336;2023-07-29T06:47:40;18.70;99.90
37786;DHT22;23625;48.784;9.336;2023-07-29T06:50:06;18.70;99.90
37786;DHT22;23625;48.784;9.336;2023-07-29T06:52:32;18.70;99.90
37786;DHT22;23625;48.784;9.336;2023-07-29T06:54:58;18.70;99.90
37786;DHT22;23625;48.784;9.336;2023-07-29T06:57:23;18.70;99.90
37786;DHT22;23625;48.784;9.336;2023-07-29T06:59:49;18.70;99.90
37786;DHT22;23625;48.784;9.336;2023-07-29T07:02:15;18.60;99.90
37786;DHT22;23625;48.784;9.336;2023-07-29T07:04:40;18.60;99.90
37786;DHT22;23625;48.784;9.336;2023-07-29T07:07:06;18.50;99.90
37786;DHT22;23625;48.784;9.336;2023-07-29T07:09:32;18.50;99.90
37786;DHT22;23625;48.784;9.336;2023-07-29T07:11:57;18.50;99.90
37786;DHT22;23625;48.784;9.336;2023-07-29T07:14:23;18.40;99.90
37786;DHT22;23625;48.784;9.336;2023-07-29T07:16:48;18.40;99.90
37786;DHT22;23625;48.784;9.336;2023-07-29T07:19:14;18.40;99.90
37786;DHT22;23625;48.784;9.336;2023-07-29T07:21:40;18.30;99.90
37786;DHT22;23625;48.784;9.336;2023-07-29T07:24:05;18.20;99.90
37786;DHT22;23625;48.784;9.336;2023-07-29T07:26:31;18.30;99.90
37786;DHT22;23625;48.784;9.336;2023-07-29T07:28:56;18.30;99.90
37786;DHT22;23625;48.784;9.336;2023-07-29T07:31:22;18.20;99.90
37786;DHT22;23625;48.784;9.336;2023-07-29T07:33:48;18.20;99.90
37786;DHT22;23625;48.784;9.336;2023-07-29T07:36:14;18.20;99.90
37786;DHT22;23625;48.784;9.336;2023-07-29T07:38:41;18.20;99.90
37786;DHT22;23625;48.784;9.336;2023-07-29T07:41:06;18.20;99.90
37786;DHT22;23625;48.784;9.336;2023-07-29T07:43:32;18.20;99.90
37786;DHT22;23625;48.784;9.336;2023-07-29T07:45:59;18.30;99.90
37786;DHT22;23625;48.784;9.336;2023-07-29T07:48:25;18.30;99.90
37786;DHT22;23625;48.784;9.336;2023-07-29T07:50:51;18.40;99.90
37786;DHT22;23625;48.784;9.336;2023-07-29T07:53:17;18.50;99.90
37786;DHT22;23625;48.784;9.336;2023-07-29T07:55:42;18.60;99.90
37786;DHT22;23625;48.784;9.336;2023-07-29T07:58:08;18.60;99.90
37786;DHT22;23625;48.784;9.336;2023-07-29T08:00:33;18.60;99.90
37786;DHT22;23625;48.784;9.336;2023-07-29T08:02:59;18.60;99.90
37786;DHT22;23625;48.784;9.336;2023-07-29T08:05:24;18.60;99.90
37786;DHT22;23625;48.784;9.336;2023-07-29T08:07:50;18.60;99.90
37786;DHT22;23625;48.784;9.336;2023-07-29T08:10:15;18.60;99.90
37786;DHT22;23625;48.784;9.336;2023-07-29T08:12:41;18.60;99.90
37786;DHT22;23625;48.784;9.336;2023-07-29T08:15:07;18.70;99.90
37786;DHT22;23625;48.784;9.336;2023-07-29T08:17:32;18.70;99.90
37786;DHT22;23625;48.784;9.336;2023-07-29T08:19:58;18.80;99.90
37786;DHT22;23625;48.784;9.336;2023-07-29T08:22:24;18.80;99.90
37786;DHT22;23625;48.784;9.336;2023-07-29T08:24:49;18.90;99.90
37786;DHT22;23625;48.784;9.336;2023-07-29T08:27:15;19.00;99.90
37786;DHT22;23625;48.784;9.336;2023-07-29T08:29:40;19.20;99.90
37786;DHT22;23625;48.784;9.336;2023-07-29T08:32:06;19.30;99.90
37786;DHT22;23625;48.784;9.336;2023-07-29T08:34:32;19.40;99.90
37786;DHT22;23625;48.784;9.336;2023-07-29T08:36:57;19.40;99.90
37786;DHT22;23625;48.784;9.336;2023-07-29T08:39:23;19.50;99.90
37786;DHT22;23625;48.784;9.336;2023-07-29T08:42:04;19.70;99.90
37786;DHT22;23625;48.784;9.336;2023-07-29T08:44:40;19.80;99.90
37786;DHT22;23625;48.784;9.336;2023-07-29T08:47:06;19.90;99.90
37786;DHT22;23625;48.784;9.336;2023-07-29T08:49:33;20.00;99.90
37786;DHT22;23625;48.784;9.336;2023-07-29T08:51:59;20.10;99.90
37786;DHT22;23625;48.784;9.336;2023-07-29T08:54:26;20.30;99.90
37786;DHT22;23625;48.784;9.336;2023-07-29T08:56:52;20.50;99.90
37786;DHT22;23625;48.784;9.336;2023-07-29T08:59:18;20.60;99.90
37786;DHT22;23625;48.784;9.336;2023-07-29T09:01:44;20.70;99.90
37786;DHT22;23625;48.784;9.336;2023-07-29T09:04:10;20.90;99.90
37786;DHT22;23625;48.784;9.336;2023-07-29T09:06:36;21.30;99.90
37786;DHT22;23625;48.784;9.336;2023-07-29T09:09:03;21.80;99.90
37786;DHT22;23625;48.784;9.336;2023-07-29T09:11:30;22.30;99.90
37786;DHT22;23625;48.784;9.336;2023-07-29T09:13:56;22.40;99.90
37786;DHT22;23625;48.784;9.336;2023-07-29T09:16:22;22.40;99.90
37786;DHT22;23625;48.784;9.336;2023-07-29T09:18:49;22.40;99.90
37786;DHT22;23625;48.784;9.336;2023-07-29T09:21:22;22.40;99.90
37786;DHT22;23625;48.784;9.336;2023-07-29T09:23:50;22.50;99.90
37786;DHT22;23625;48.784;9.336;2023-07-29T09:26:22;22.60;99.90
37786;DHT22;23625;48.784;9.336;2023-07-29T09:28:55;22.40;99.90
37786;DHT22;23625;48.784;9.336;2023-07-29T09:31:28;22.20;99.90
37786;DHT22;23625;48.784;9.336;2023-07-29T09:34:02;22.20;99.90
37786;DHT22;23625;48.784;9.336;2023-07-29T09:36:31;22.10;99.90
37786;DHT22;23625;48.784;9.336;2023-07-29T09:38:57;22.20;99.90
37786;DHT22;23625;48.784;9.336;2023-07-29T09:41:24;22.20;99.90
37786;DHT22;23625;48.784;9.336;2023-07-29T09:43:56;22.20;99.90
37786;DHT22;23625;48.784;9.336;2023-07-29T09:46:24;22.30;99.90
37786;DHT22;23625;48.784;9.336;2023-07-29T09:48:53;22.40;99.90
37786;DHT22;23625;48.784;9.336;2023-07-29T09:51:22;22.50;99.90
37786;DHT22;23625;48.784;9.336;2023-07-29T09:53:50;22.60;99.90
37786;DHT22;23625;48.784;9.336;2023-07-29T09:56:16;22.70;99.90
37786;DHT22;23625;48.784;9.336;2023-07-29T09:58:45;22.90;99.90
37786;DHT22;23625;48.784;9.336;2023-07-29T10:01:12;23.00;99.90
37786;DHT22;23625;48.784;9.336;2023-07-29T10:03:37;23.00;99.90
37786;DHT22;23625;48.784;9.336;2023-07-29T10:06:04;23.00;99.90
37786;DHT22;23625;48.784;9.336;2023-07-29T10:08:31;23.10;99.90
37786;DHT22;23625;48.784;9.336;2023-07-29T16:52:02;27.10;64.20
37786;DHT22;23625;48.784;9.336;2023-07-29T16:54:28;26.80;65.40
37786;DHT22;23625;48.784;9.336;2023-07-29T16:56:53;26.90;63.20
37786;DHT22;23625;48.784;9.336;2023-07-29T16:59:19;26.90;63.00
37786;DHT22;23625;48.784;9.336;2023-07-29T17:01:44;26.80;64.50
37786;DHT22;23625;48.784;9.336;2023-07-29T17:04:10;26.80;63.30
37786;DHT22;23625;48.784;9.336;2023-07-29T17:06:36;26.60;63.70
37786;DHT22;23625;48.784;9.336;2023-07-29T17:09:01;26.30;64.10
37786;DHT22;23625;48.784;9.336;2023-07-29T17:11:27;26.10;63.60
37786;DHT22;23625;48.784;9.336;2023-07-29T17:13:53;26.20;63.90
37786;DHT22;23625;48.784;9.336;2023-07-29T17:16:18;26.10;65.20
37786;DHT22;23625;48.784;9.336;2023-07-29T17:18:44;26.00;64.90
37786;DHT22;23625;48.784;9.336;2023-07-29T17:21:09;25.90;65.80
37786;DHT22;23625;48.784;9.336;2023-07-29T17:23:35;25.90;66.20
37786;DHT22;23625;48.784;9.336;2023-07-29T17:26:01;25.70;67.70
37786;DHT22;23625;48.784;9.336;2023-07-29T17:28:27;25.70;66.50
37786;DHT22;23625;48.784;9.336;2023-07-29T17:30:53;25.70;67.90
37786;DHT22;23625;48.784;9.336;2023-07-29T17:33:18;25.50;69.50
37786;DHT22;23625;48.784;9.336;2023-07-29T17:35:45;25.50;69.20
37786;DHT22;23625;48.784;9.336;2023-07-29T17:38:11;24.90;77.00
37786;DHT22;23625;48.784;9.336;2023-07-29T17:40:36;24.10;84.60
37786;DHT22;23625;48.784;9.336;2023-07-29T17:43:02;23.60;93.60
37786;DHT22;23625;48.784;9.336;2023-07-29T17:45:28;23.20;97.70
37786;DHT22;23625;48.784;9.336;2023-07-29T17:47:54;22.80;99.90
37786;DHT22;23625;48.784;9.336;2023-07-29T17:50:19;22.30;99.90
37786;DHT22;23625;48.784;9.336;2023-07-29T17:52:45;21.90;99.90
37786;DHT22;23625;48.784;9.336;2023-07-29T17:55:11;21.40;99.90
37786;DHT22;23625;48.784;9.336;2023-07-29T17:57:37;21.10;99.90
37786;DHT22;23625;48.784;9.336;2023-07-29T18:00:03;20.80;99.90
37786;DHT22;23625;48.784;9.336;2023-07-29T18:02:31;20.70;99.90
37786;DHT22;23625;48.784;9.336;2023-07-29T18:04:57;20.50;99.90
37786;DHT22;23625;48.784;9.336;2023-07-29T18:07:26;20.40;99.90
37786;DHT22;23625;48.784;9.336;2023-07-29T18:09:52;20.30;99.90
37786;DHT22;23625;48.784;9.336;2023-07-29T18:12:17;20.30;99.90
37786;DHT22;23625;48.784;9.336;2023-07-29T18:14:43;20.20;99.90
37786;DHT22;23625;48.784;9.336;2023-07-29T18:17:10;20.20;99.90
37786;DHT22;23625;48.784;9.336;2023-07-29T18:19:35;20.20;99.90
37786;DHT22;23625;48.784;9.336;2023-07-29T18:22:06;20.20;99.90
37786;DHT22;23625;48.784;9.336;2023-07-29T18:24:32;20.20;99.90
37786;DHT22;23625;48.784;9.336;2023-07-29T18:26:57;20.20;99.90
37786;DHT22;23625;48.784;9.336;2023-07-29T18:29:23;20.10;99.90
37786;DHT22;23625;48.784;9.336;2023-07-29T18:31:48;20.10;99.90
37786;DHT22;23625;48.784;9.336;2023-07-29T18:34:17;20.10;99.90
37786;DHT22;23625;48.784;9.336;2023-07-29T18:36:44;20.10;99.90
37786;DHT22;23625;48.784;9.336;2023-07-29T18:39:10;20.10;99.90
37786;DHT22;23625;48.784;9.336;2023-07-29T18:41:38;20.00;99.90
37786;DHT22;23625;48.784;9.336;2023-07-29T18:44:04;20.10;99.90
37786;DHT22;23625;48.784;9.336;2023-07-29T18:46:29;20.10;99.90
37786;DHT22;23625;48.784;9.336;2023-07-29T18:48:56;20.10;99.90
37786;DHT22;23625;48.784;9.336;2023-07-29T18:51:24;20.10;99.90
37786;DHT22;23625;48.784;9.336;2023-07-29T18:53:49;20.00;99.90
37786;DHT22;23625;48.784;9.336;2023-07-29T18:56:15;20.00;99.90
37786;DHT22;23625;48.784;9.336;2023-07-29T18:58:40;20.00;99.90
37786;DHT22;23625;48.784;9.336;2023-07-29T19:01:06;20.00;99.90
37786;DHT22;23625;48.784;9.336;2023-07-29T19:03:32;20.00;99.90
37786;DHT22;23625;48.784;9.336;2023-07-29T19:05:57;20.00;99.90
37786;DHT22;23625;48.784;9.336;2023-07-29T19:08:25;19.90;99.90
37786;DHT22;23625;48.784;9.336;2023-07-29T19:10:51;19.90;99.90
37786;DHT22;23625;48.784;9.336;2023-07-29T19:13:17;19.80;99.90
37786;DHT22;23625;48.784;9.336;2023-07-29T19:15:52;19.80;99.90
37786;DHT22;23625;48.784;9.336;2023-07-29T19:18:20;19.80;99.90
37786;DHT22;23625;48.784;9.336;2023-07-29T19:20:52;19.80;99.90
37786;DHT22;23625;48.784;9.336;2023-07-29T19:23:19;19.80;99.90
37786;DHT22;23625;48.784;9.336;2023-07-29T19:25:48;19.80;99.90
37786;DHT22;23625;48.784;9.336;2023-07-29T19:28:14;19.80;99.90
37786;DHT22;23625;48.784;9.336;2023-07-29T19:30:40;19.80;99.90
37786;DHT22;23625;48.784;9.336;2023-07-29T19:33:07;19.80;99.90
37786;DHT22;23625;48.784;9.336;2023-07-29T19:35:33;19.80;99.90
37786;DHT22;23625;48.784;9.336;2023-07-29T19:37:58;19.80;99.90
37786;DHT22;23625;48.784;9.336;2023-07-29T19:40:24;19.70;99.90
37786;DHT22;23625;48.784;9.336;2023-07-29T19:42:54;19.70;99.90
37786;DHT22;23625;48.784;9.336;2023-07-29T19:45:20;19.60;99.90
37786;DHT22;23625;48.784;9.336;2023-07-29T19:47:46;19.60;99.90
37786;DHT22;23625;48.784;9.336;2023-07-29T19:50:12;19.50;99.90
37786;DHT22;23625;48.784;9.336;2023-07-29T19:52:38;19.40;99.90
37786;DHT22;23625;48.784;9.336;2023-07-29T19:55:04;19.40;99.90
37786;DHT22;23625;48.784;9.336;2023-07-29T19:57:30;19.30;99.90
37786;DHT22;23625;48.784;9.336;2023-07-29T19:59:55;19.30;99.90
37786;DHT22;23625;48.784;9.336;2023-07-29T20:02:21;19.30;99.90
37786;DHT22;23625;48.784;9.336;2023-07-29T20:04:51;19.30;99.90
37786;DHT22;23625;48.784;9.336;2023-07-29T20:07:16;19.30;99.90
37786;DHT22;23625;48.784;9.336;2023-07-29T20:09:42;19.30;99.90
37786;DHT22;23625;48.784;9.336;2023-07-29T20:12:08;19.30;99.90
37786;DHT22;23625;48.784;9.336;2023-07-29T20:14:34;19.30;99.90
37786;DHT22;23625;48.784;9.336;2023-07-29T20:17:00;19.30;99.90
37786;DHT22;23625;48.784;9.336;2023-07-29T20:19:25;19.20;99.90
37786;DHT22;23625;48.784;9.336;2023-07-29T20:21:51;19.30;99.90
37786;DHT22;23625;48.784;9.336;2023-07-29T20:24:17;19.20;99.90
37786;DHT22;23625;48.784;9.336;2023-07-29T20:26:42;19.10;99.90
37786;DHT22;23625;48.784;9.336;2023-07-29T20:29:08;19.10;99.90
37786;DHT22;23625;48.784;9.336;2023-07-29T20:31:34;19.00;99.90
37786;DHT22;23625;48.784;9.336;2023-07-29T20:33:59;19.00;99.90
37786;DHT22;23625;48.784;9.336;2023-07-29T20:36:25;19.00;99.90
37786;DHT22;23625;48.784;9.336;2023-07-29T20:38:54;18.90;99.90
37786;DHT22;23625;48.784;9.336;2023-07-29T20:41:20;18.90;99.90
37786;DHT22;23625;48.784;9.336;2023-07-29T20:43:46;19.00;99.90
37786;DHT22;23625;48.784;9.336;2023-07-29T20:46:23;19.00;99.90
37786;DHT22;23625;48.784;9.336;2023-07-29T20:48:49;19.00;99.90
37786;DHT22;23625;48.784;9.336;2023-07-29T20:51:18;19.00;99.90
37786;DHT22;23625;48.784;9.336;2023-07-29T20:53:45;19.00;99.90
37786;DHT22;23625;48.784;9.336;2023-07-29T20:56:12;18.90;99.90
37786;DHT22;23625;48.784;9.336;2023-07-29T20:58:39;19.00;99.90
37786;DHT22;23625;48.784;9.336;2023-07-29T21:01:04;19.00;99.90
37786;DHT22;23625;48.784;9.336;2023-07-29T21:03:30;19.00;99.90
37786;DHT22;23625;48.784;9.336;2023-07-29T21:05:56;19.00;99.90
37786;DHT22;23625;48.784;9.336;2023-07-29T21:08:22;19.00;99.90
37786;DHT22;23625;48.784;9.336;2023-07-29T21:10:51;18.90;99.90
37786;DHT22;23625;48.784;9.336;2023-07-29T21:13:17;19.00;99.90
37786;DHT22;23625;48.784;9.336;2023-07-29T21:15:52;19.00;99.90
37786;DHT22;23625;48.784;9.336;2023-07-29T21:18:18;18.90;99.90
37786;DHT22;23625;48.784;9.336;2023-07-29T21:20:44;18.90;99.90
37786;DHT22;23625;48.784;9.336;2023-07-29T21:23:09;18.90;99.90
37786;DHT22;23625;48.784;9.336;2023-07-29T21:25:35;18.80;99.90
37786;DHT22;23625;48.784;9.336;2023-07-29T21:28:01;18.80;99.90
37786;DHT22;23625;48.784;9.336;2023-07-29T21:30:26;18.80;99.90
37786;DHT22;23625;48.784;9.336;2023-07-29T21:32:54;18.80;99.90
37786;DHT22;23625;48.784;9.336;2023-07-29T21:35:19;18.70;99.90
37786;DHT22;23625;48.784;9.336;2023-07-29T21:37:45;18.70;99.90
37786;DHT22;23625;48.784;9.336;2023-07-29T21:40:11;18.70;99.90
37786;DHT22;23625;48.784;9.336;2023-07-29T21:42:37;18.60;99.90
37786;DHT22;23625;48.784;9.336;2023-07-29T21:45:04;18.60;99.90
37786;DHT22;23625;48.784;9.336;2023-07-29T21:47:30;18.60;99.90
37786;DHT22;23625;48.784;9.336;2023-07-29T21:49:56;18.60;99.90
37786;DHT22;23625;48.784;9.336;2023-07-29T21:52:21;18.60;99.90
37786;DHT22;23625;48.784;9.336;2023-07-29T21:54:48;18.60;99.90
37786;DHT22;23625;48.784;9.336;2023-07-29T21:57:13;18.50;99.90
37786;DHT22;23625;48.784;9.336;2023-07-29T21:59:39;18.50;99.90
37786;DHT22;23625;48.784;9.336;2023-07-29T22:02:05;18.60;99.90
37786;DHT22;23625;48.784;9.336;2023-07-29T22:04:30;18.60;99.90
37786;DHT22;23625;48.784;9.336;2023-07-29T22:06:56;18.60;99.90
37786;DHT22;23625;48.784;9.336;2023-07-29T22:09:22;18.60;99.90